Terminal Aerodrome Forecast
Issued by NWS Wilmington, NC

Home | Current Version | Previous Version | Text Only | Print | Product List | Glossary On
Versions: 1 2 3 4 5 6 7 8 9 10 11 12 13 14 15 16 17 18 19 20 21
000
FTUS42 KILM 182335
TAFLBT
TAF
KLBT 182335Z 1900/1924 VRB04KT P6SM SCT025 BKN040 BKN080
     FM190600 09003KT 6SM BR VCSH SCT007 BKN016
      TEMPO 1908/1912 4SM -RA BR SCT004 OVC007
     FM191200 10006KT 5SM -SHRA SCT007 BKN015
     FM191400 13010KT 3SM SHRA BKN012
     FM191700 16011G18KT 6SM -RA BR BKN007 OVC012=

USA.gov is the U.S. government's official web portal to all federal, state and local government web resources and services.